sensor_id;sensor_type;location;lat;lon;timestamp;P1;durP1;ratioP1;P2;durP2;ratioP2
25559;SDS011;13450;49.374;8.584;2023-04-15T00:02:22;4.18;;;1.80;;
25559;SDS011;13450;49.374;8.584;2023-04-15T00:04:47;5.00;;;2.38;;
25559;SDS011;13450;49.374;8.584;2023-04-15T00:07:13;6.18;;;2.10;;
25559;SDS011;13450;49.374;8.584;2023-04-15T00:09:40;6.35;;;2.25;;
25559;SDS011;13450;49.374;8.584;2023-04-15T00:12:05;4.55;;;2.10;;
25559;SDS011;13450;49.374;8.584;2023-04-15T00:14:32;5.82;;;2.00;;
25559;SDS011;13450;49.374;8.584;2023-04-15T00:16:59;4.95;;;2.10;;
25559;SDS011;13450;49.374;8.584;2023-04-15T00:19:25;4.45;;;1.67;;
25559;SDS011;13450;49.374;8.584;2023-04-15T00:21:50;5.85;;;2.00;;
25559;SDS011;13450;49.374;8.584;2023-04-15T00:24:16;5.05;;;2.28;;
25559;SDS011;13450;49.374;8.584;2023-04-15T00:26:41;9.00;;;2.45;;
25559;SDS011;13450;49.374;8.584;2023-04-15T00:29:07;4.97;;;2.00;;
25559;SDS011;13450;49.374;8.584;2023-04-15T00:31:32;6.72;;;2.63;;
25559;SDS011;13450;49.374;8.584;2023-04-15T00:33:59;8.15;;;2.90;;
25559;SDS011;13450;49.374;8.584;2023-04-15T00:36:26;5.53;;;2.80;;
25559;SDS011;13450;49.374;8.584;2023-04-15T00:38:51;6.88;;;2.60;;
25559;SDS011;13450;49.374;8.584;2023-04-15T00:41:17;6.07;;;2.63;;
25559;SDS011;13450;49.374;8.584;2023-04-15T00:43:43;5.70;;;2.42;;
25559;SDS011;13450;49.374;8.584;2023-04-15T00:46:09;6.40;;;2.63;;
25559;SDS011;13450;49.374;8.584;2023-04-15T00:48:39;7.40;;;2.70;;
25559;SDS011;13450;49.374;8.584;2023-04-15T00:51:05;5.07;;;2.10;;
25559;SDS011;13450;49.374;8.584;2023-04-15T00:53:31;4.13;;;1.90;;
25559;SDS011;13450;49.374;8.584;2023-04-15T00:55:58;8.30;;;2.05;;
25559;SDS011;13450;49.374;8.584;2023-04-15T00:58:24;6.10;;;2.28;;
25559;SDS011;13450;49.374;8.584;2023-04-15T01:00:51;5.00;;;2.15;;
25559;SDS011;13450;49.374;8.584;2023-04-15T01:03:19;6.15;;;2.28;;
25559;SDS011;13450;49.374;8.584;2023-04-15T01:05:44;6.38;;;2.30;;
25559;SDS011;13450;49.374;8.584;2023-04-15T01:08:10;8.05;;;2.50;;
25559;SDS011;13450;49.374;8.584;2023-04-15T01:10:36;6.80;;;2.30;;
25559;SDS011;13450;49.374;8.584;2023-04-15T01:13:02;5.38;;;1.90;;
25559;SDS011;13450;49.374;8.584;2023-04-15T01:15:30;6.22;;;2.47;;
25559;SDS011;13450;49.374;8.584;2023-04-15T01:17:56;6.38;;;2.67;;
25559;SDS011;13450;49.374;8.584;2023-04-15T01:20:23;5.35;;;2.70;;
25559;SDS011;13450;49.374;8.584;2023-04-15T01:22:48;5.55;;;2.55;;
25559;SDS011;13450;49.374;8.584;2023-04-15T01:25:18;4.40;;;2.00;;
25559;SDS011;13450;49.374;8.584;2023-04-15T01:27:46;5.40;;;2.05;;
25559;SDS011;13450;49.374;8.584;2023-04-15T01:30:12;3.65;;;1.67;;
25559;SDS011;13450;49.374;8.584;2023-04-15T01:32:38;5.15;;;2.03;;
25559;SDS011;13450;49.374;8.584;2023-04-15T01:35:03;5.07;;;2.00;;
25559;SDS011;13450;49.374;8.584;2023-04-15T01:37:30;5.25;;;2.38;;
25559;SDS011;13450;49.374;8.584;2023-04-15T01:39:56;5.80;;;2.33;;
25559;SDS011;13450;49.374;8.584;2023-04-15T01:42:23;5.00;;;1.60;;
25559;SDS011;13450;49.374;8.584;2023-04-15T01:44:48;5.72;;;2.10;;
25559;SDS011;13450;49.374;8.584;2023-04-15T01:47:14;7.15;;;2.33;;
25559;SDS011;13450;49.374;8.584;2023-04-15T01:49:39;3.35;;;1.83;;
25559;SDS011;13450;49.374;8.584;2023-04-15T01:52:05;8.02;;;2.58;;
25559;SDS011;13450;49.374;8.584;2023-04-15T01:54:30;6.10;;;2.42;;
25559;SDS011;13450;49.374;8.584;2023-04-15T01:56:55;7.45;;;2.97;;
25559;SDS011;13450;49.374;8.584;2023-04-15T01:59:21;5.38;;;2.42;;
25559;SDS011;13450;49.374;8.584;2023-04-15T02:01:49;6.65;;;2.40;;
25559;SDS011;13450;49.374;8.584;2023-04-15T02:04:17;5.28;;;2.38;;
25559;SDS011;13450;49.374;8.584;2023-04-15T02:06:42;6.25;;;2.50;;
25559;SDS011;13450;49.374;8.584;2023-04-15T02:09:08;6.32;;;2.30;;
25559;SDS011;13450;49.374;8.584;2023-04-15T02:11:34;9.70;;;2.33;;
25559;SDS011;13450;49.374;8.584;2023-04-15T02:14:01;5.78;;;2.80;;
25559;SDS011;13450;49.374;8.584;2023-04-15T02:16:32;8.80;;;2.83;;
25559;SDS011;13450;49.374;8.584;2023-04-15T02:19:00;5.28;;;2.58;;
25559;SDS011;13450;49.374;8.584;2023-04-15T02:21:26;4.55;;;1.90;;
25559;SDS011;13450;49.374;8.584;2023-04-15T02:23:51;5.72;;;2.25;;
25559;SDS011;13450;49.374;8.584;2023-04-15T02:26:18;5.00;;;2.47;;
25559;SDS011;13450;49.374;8.584;2023-04-15T02:28:44;5.25;;;2.10;;
25559;SDS011;13450;49.374;8.584;2023-04-15T02:31:10;4.57;;;1.77;;
25559;SDS011;13450;49.374;8.584;2023-04-15T02:33:35;5.55;;;1.73;;
25559;SDS011;13450;49.374;8.584;2023-04-15T02:36:02;8.00;;;2.28;;
25559;SDS011;13450;49.374;8.584;2023-04-15T02:38:27;4.80;;;2.15;;
25559;SDS011;13450;49.374;8.584;2023-04-15T02:40:53;5.95;;;2.38;;
25559;SDS011;13450;49.374;8.584;2023-04-15T02:43:18;5.22;;;2.25;;
25559;SDS011;13450;49.374;8.584;2023-04-15T02:45:44;7.78;;;2.47;;
25559;SDS011;13450;49.374;8.584;2023-04-15T02:48:11;6.63;;;2.40;;
25559;SDS011;13450;49.374;8.584;2023-04-15T02:50:36;5.32;;;1.98;;
25559;SDS011;13450;49.374;8.584;2023-04-15T02:53:04;7.50;;;2.50;;
25559;SDS011;13450;49.374;8.584;2023-04-15T02:55:30;6.88;;;2.50;;
25559;SDS011;13450;49.374;8.584;2023-04-15T02:57:55;4.53;;;2.20;;
25559;SDS011;13450;49.374;8.584;2023-04-15T03:00:23;6.63;;;2.50;;
25559;SDS011;13450;49.374;8.584;2023-04-15T03:02:49;4.40;;;2.30;;
25559;SDS011;13450;49.374;8.584;2023-04-15T03:05:20;5.60;;;2.47;;
25559;SDS011;13450;49.374;8.584;2023-04-15T03:07:51;4.03;;;2.25;;
25559;SDS011;13450;49.374;8.584;2023-04-15T03:10:17;7.93;;;2.63;;
25559;SDS011;13450;49.374;8.584;2023-04-15T03:12:45;5.10;;;2.22;;
25559;SDS011;13450;49.374;8.584;2023-04-15T03:15:10;5.82;;;2.30;;
25559;SDS011;13450;49.374;8.584;2023-04-15T03:17:36;6.05;;;2.70;;
25559;SDS011;13450;49.374;8.584;2023-04-15T03:20:02;6.07;;;2.10;;
25559;SDS011;13450;49.374;8.584;2023-04-15T03:22:29;5.75;;;2.30;;
25559;SDS011;13450;49.374;8.584;2023-04-15T03:24:55;5.45;;;2.20;;
25559;SDS011;13450;49.374;8.584;2023-04-15T03:27:21;5.40;;;2.15;;
25559;SDS011;13450;49.374;8.584;2023-04-15T03:29:46;4.55;;;1.88;;
25559;SDS011;13450;49.374;8.584;2023-04-15T03:32:12;7.38;;;2.70;;
25559;SDS011;13450;49.374;8.584;2023-04-15T03:34:39;5.28;;;2.40;;
25559;SDS011;13450;49.374;8.584;2023-04-15T03:37:05;7.15;;;2.40;;
25559;SDS011;13450;49.374;8.584;2023-04-15T03:39:31;7.70;;;2.17;;
25559;SDS011;13450;49.374;8.584;2023-04-15T03:41:57;5.13;;;2.03;;
25559;SDS011;13450;49.374;8.584;2023-04-15T03:44:23;6.45;;;2.17;;
25559;SDS011;13450;49.374;8.584;2023-04-15T03:46:50;4.85;;;2.22;;
25559;SDS011;13450;49.374;8.584;2023-04-15T03:49:16;6.93;;;2.13;;
25559;SDS011;13450;49.374;8.584;2023-04-15T03:51:41;4.63;;;2.08;;
25559;SDS011;13450;49.374;8.584;2023-04-15T03:54:06;4.70;;;1.92;;
25559;SDS011;13450;49.374;8.584;2023-04-15T03:56:32;5.85;;;2.13;;
25559;SDS011;13450;49.374;8.584;2023-04-15T03:58:57;7.82;;;2.28;;
25559;SDS011;13450;49.374;8.584;2023-04-15T04:01:22;6.93;;;2.38;;
25559;SDS011;13450;49.374;8.584;2023-04-15T04:03:48;4.60;;;2.05;;
25559;SDS011;13450;49.374;8.584;2023-04-15T04:06:16;6.80;;;2.60;;
25559;SDS011;13450;49.374;8.584;2023-04-15T04:08:41;6.22;;;2.50;;
25559;SDS011;13450;49.374;8.584;2023-04-15T04:11:07;5.45;;;2.35;;
25559;SDS011;13450;49.374;8.584;2023-04-15T04:13:32;5.72;;;2.47;;
25559;SDS011;13450;49.374;8.584;2023-04-15T04:15:57;4.53;;;2.08;;
25559;SDS011;13450;49.374;8.584;2023-04-15T04:18:23;4.43;;;2.00;;
25559;SDS011;13450;49.374;8.584;2023-04-15T04:20:48;5.18;;;2.25;;
25559;SDS011;13450;49.374;8.584;2023-04-15T04:23:14;4.55;;;2.10;;
25559;SDS011;13450;49.374;8.584;2023-04-15T04:25:39;9.02;;;2.60;;
25559;SDS011;13450;49.374;8.584;2023-04-15T04:28:06;6.75;;;2.75;;
25559;SDS011;13450;49.374;8.584;2023-04-15T04:30:31;6.78;;;2.30;;
25559;SDS011;13450;49.374;8.584;2023-04-15T04:32:57;7.55;;;2.58;;
25559;SDS011;13450;49.374;8.584;2023-04-15T04:35:22;7.13;;;2.17;;
25559;SDS011;13450;49.374;8.584;2023-04-15T04:37:48;6.28;;;2.33;;
25559;SDS011;13450;49.374;8.584;2023-04-15T04:40:15;6.65;;;2.47;;
25559;SDS011;13450;49.374;8.584;2023-04-15T04:42:41;3.28;;;1.60;;
25559;SDS011;13450;49.374;8.584;2023-04-15T04:45:06;6.93;;;2.22;;
25559;SDS011;13450;49.374;8.584;2023-04-15T04:47:33;5.78;;;2.00;;
25559;SDS011;13450;49.374;8.584;2023-04-15T04:50:00;5.50;;;2.10;;
25559;SDS011;13450;49.374;8.584;2023-04-15T04:52:27;4.78;;;2.00;;
25559;SDS011;13450;49.374;8.584;2023-04-15T04:54:53;6.22;;;2.30;;
25559;SDS011;13450;49.374;8.584;2023-04-15T04:57:18;4.57;;;2.15;;
25559;SDS011;13450;49.374;8.584;2023-04-15T04:59:45;7.10;;;2.30;;
25559;SDS011;13450;49.374;8.584;2023-04-15T05:02:10;6.97;;;2.15;;
25559;SDS011;13450;49.374;8.584;2023-04-15T05:04:35;7.38;;;2.50;;
25559;SDS011;13450;49.374;8.584;2023-04-15T05:07:01;5.95;;;2.45;;
25559;SDS011;13450;49.374;8.584;2023-04-15T05:09:26;5.72;;;2.40;;
25559;SDS011;13450;49.374;8.584;2023-04-15T05:11:52;6.10;;;2.60;;
25559;SDS011;13450;49.374;8.584;2023-04-15T05:14:20;7.57;;;2.55;;
25559;SDS011;13450;49.374;8.584;2023-04-15T05:16:45;7.57;;;2.97;;
25559;SDS011;13450;49.374;8.584;2023-04-15T05:19:11;6.07;;;2.60;;
25559;SDS011;13450;49.374;8.584;2023-04-15T05:21:38;7.28;;;3.05;;
25559;SDS011;13450;49.374;8.584;2023-04-15T05:24:04;8.52;;;3.50;;
25559;SDS011;13450;49.374;8.584;2023-04-15T05:26:30;6.90;;;3.08;;
25559;SDS011;13450;49.374;8.584;2023-04-15T05:28:56;6.05;;;2.72;;
25559;SDS011;13450;49.374;8.584;2023-04-15T05:31:22;6.55;;;2.90;;
25559;SDS011;13450;49.374;8.584;2023-04-15T05:33:47;5.57;;;2.88;;
25559;SDS011;13450;49.374;8.584;2023-04-15T05:36:14;6.80;;;2.35;;
25559;SDS011;13450;49.374;8.584;2023-04-15T05:38:39;7.13;;;3.08;;
25559;SDS011;13450;49.374;8.584;2023-04-15T05:41:05;5.78;;;2.80;;
25559;SDS011;13450;49.374;8.584;2023-04-15T05:43:30;8.30;;;3.42;;
25559;SDS011;13450;49.374;8.584;2023-04-15T05:45:56;7.32;;;2.67;;
25559;SDS011;13450;49.374;8.584;2023-04-15T05:48:21;4.88;;;2.63;;
25559;SDS011;13450;49.374;8.584;2023-04-15T05:50:47;6.43;;;2.83;;
25559;SDS011;13450;49.374;8.584;2023-04-15T05:53:12;7.20;;;3.38;;
25559;SDS011;13450;49.374;8.584;2023-04-15T05:55:42;9.50;;;3.25;;
25559;SDS011;13450;49.374;8.584;2023-04-15T05:58:07;5.20;;;2.53;;
25559;SDS011;13450;49.374;8.584;2023-04-15T06:00:33;5.95;;;2.30;;
25559;SDS011;13450;49.374;8.584;2023-04-15T06:03:00;6.80;;;2.60;;
25559;SDS011;13450;49.374;8.584;2023-04-15T06:05:25;8.13;;;2.58;;
25559;SDS011;13450;49.374;8.584;2023-04-15T06:07:51;9.35;;;2.92;;
25559;SDS011;13450;49.374;8.584;2023-04-15T06:10:17;6.78;;;3.08;;
25559;SDS011;13450;49.374;8.584;2023-04-15T06:12:42;5.53;;;2.22;;
25559;SDS011;13450;49.374;8.584;2023-04-15T06:15:08;7.47;;;2.70;;
25559;SDS011;13450;49.374;8.584;2023-04-15T06:17:36;8.63;;;3.20;;
25559;SDS011;13450;49.374;8.584;2023-04-15T06:20:03;8.82;;;3.08;;
25559;SDS011;13450;49.374;8.584;2023-04-15T06:22:32;4.72;;;2.30;;
25559;SDS011;13450;49.374;8.584;2023-04-15T06:24:58;8.35;;;3.00;;
25559;SDS011;13450;49.374;8.584;2023-04-15T06:27:23;6.32;;;3.05;;
25559;SDS011;13450;49.374;8.584;2023-04-15T06:29:49;6.50;;;3.35;;
25559;SDS011;13450;49.374;8.584;2023-04-15T06:32:14;5.40;;;2.53;;
25559;SDS011;13450;49.374;8.584;2023-04-15T06:34:40;4.78;;;2.70;;
25559;SDS011;13450;49.374;8.584;2023-04-15T06:37:05;9.25;;;4.68;;
25559;SDS011;13450;49.374;8.584;2023-04-15T06:39:31;6.53;;;3.22;;
25559;SDS011;13450;49.374;8.584;2023-04-15T06:41:56;5.57;;;3.08;;
25559;SDS011;13450;49.374;8.584;2023-04-15T06:46:51;8.75;;;4.03;;
25559;SDS011;13450;49.374;8.584;2023-04-15T06:49:16;8.00;;;3.80;;
25559;SDS011;13450;49.374;8.584;2023-04-15T06:51:42;6.63;;;3.22;;
25559;SDS011;13450;49.374;8.584;2023-04-15T06:54:07;7.68;;;3.55;;
25559;SDS011;13450;49.374;8.584;2023-04-15T06:56:32;6.60;;;3.13;;
25559;SDS011;13450;49.374;8.584;2023-04-15T06:59:00;7.38;;;3.85;;
25559;SDS011;13450;49.374;8.584;2023-04-15T07:01:25;9.63;;;4.43;;
25559;SDS011;13450;49.374;8.584;2023-04-15T07:03:50;7.45;;;3.65;;
25559;SDS011;13450;49.374;8.584;2023-04-15T07:06:16;8.52;;;3.63;;
25559;SDS011;13450;49.374;8.584;2023-04-15T07:08:41;9.00;;;3.95;;
25559;SDS011;13450;49.374;8.584;2023-04-15T07:11:09;8.70;;;3.30;;
25559;SDS011;13450;49.374;8.584;2023-04-15T07:13:34;9.65;;;4.75;;
25559;SDS011;13450;49.374;8.584;2023-04-15T07:16:02;9.02;;;3.75;;
25559;SDS011;13450;49.374;8.584;2023-04-15T07:18:28;9.40;;;3.97;;
25559;SDS011;13450;49.374;8.584;2023-04-15T07:20:53;7.38;;;3.30;;
25559;SDS011;13450;49.374;8.584;2023-04-15T07:23:18;7.65;;;3.70;;
25559;SDS011;13450;49.374;8.584;2023-04-15T07:25:44;8.07;;;4.22;;
25559;SDS011;13450;49.374;8.584;2023-04-15T07:28:11;8.25;;;3.40;;
25559;SDS011;13450;49.374;8.584;2023-04-15T07:30:37;7.47;;;3.30;;
25559;SDS011;13450;49.374;8.584;2023-04-15T07:33:02;9.25;;;3.80;;
25559;SDS011;13450;49.374;8.584;2023-04-15T07:35:27;7.28;;;4.00;;
25559;SDS011;13450;49.374;8.584;2023-04-15T07:37:53;8.25;;;3.75;;
25559;SDS011;13450;49.374;8.584;2023-04-15T07:40:18;11.45;;;3.50;;
25559;SDS011;13450;49.374;8.584;2023-04-15T07:42:46;9.82;;;4.07;;
25559;SDS011;13450;49.374;8.584;2023-04-15T07:47:48;8.88;;;3.97;;
25559;SDS011;13450;49.374;8.584;2023-04-15T07:50:17;7.55;;;3.63;;
25559;SDS011;13450;49.374;8.584;2023-04-15T07:52:43;7.50;;;3.03;;
25559;SDS011;13450;49.374;8.584;2023-04-15T07:55:09;8.60;;;3.67;;
25559;SDS011;13450;49.374;8.584;2023-04-15T07:57:35;8.43;;;4.22;;
25559;SDS011;13450;49.374;8.584;2023-04-15T08:00:01;8.35;;;4.15;;
25559;SDS011;13450;49.374;8.584;2023-04-15T08:02:30;10.98;;;3.70;;
25559;SDS011;13450;49.374;8.584;2023-04-15T08:04:56;5.57;;;2.63;;
25559;SDS011;13450;49.374;8.584;2023-04-15T08:07:36;6.65;;;3.40;;
25559;SDS011;13450;49.374;8.584;2023-04-15T08:10:05;7.68;;;3.45;;
25559;SDS011;13450;49.374;8.584;2023-04-15T08:12:31;10.25;;;4.47;;
25559;SDS011;13450;49.374;8.584;2023-04-15T08:14:57;9.23;;;4.50;;
25559;SDS011;13450;49.374;8.584;2023-04-15T08:17:23;15.23;;;6.53;;
25559;SDS011;13450;49.374;8.584;2023-04-15T08:19:49;10.05;;;4.80;;
25559;SDS011;13450;49.374;8.584;2023-04-15T08:22:18;27.07;;;14.67;;
25559;SDS011;13450;49.374;8.584;2023-04-15T08:24:43;20.60;;;13.52;;
25559;SDS011;13450;49.374;8.584;2023-04-15T08:27:09;8.90;;;4.65;;
25559;SDS011;13450;49.374;8.584;2023-04-15T08:29:35;11.70;;;5.03;;
25559;SDS011;13450;49.374;8.584;2023-04-15T08:32:00;7.22;;;3.40;;
25559;SDS011;13450;49.374;8.584;2023-04-15T08:34:26;7.00;;;3.75;;
25559;SDS011;13450;49.374;8.584;2023-04-15T08:36:52;7.85;;;3.42;;
25559;SDS011;13450;49.374;8.584;2023-04-15T08:39:18;9.50;;;4.45;;
25559;SDS011;13450;49.374;8.584;2023-04-15T08:41:45;8.35;;;4.13;;
25559;SDS011;13450;49.374;8.584;2023-04-15T08:44:12;21.33;;;12.20;;
25559;SDS011;13450;49.374;8.584;2023-04-15T08:46:41;14.02;;;8.82;;
25559;SDS011;13450;49.374;8.584;2023-04-15T08:49:09;7.38;;;3.58;;
25559;SDS011;13450;49.374;8.584;2023-04-15T08:51:39;7.88;;;3.83;;
25559;SDS011;13450;49.374;8.584;2023-04-15T08:54:06;8.90;;;4.22;;
25559;SDS011;13450;49.374;8.584;2023-04-15T08:56:35;7.50;;;3.70;;
25559;SDS011;13450;49.374;8.584;2023-04-15T08:59:01;13.25;;;4.70;;
25559;SDS011;13450;49.374;8.584;2023-04-15T09:01:29;21.03;;;11.00;;
25559;SDS011;13450;49.374;8.584;2023-04-15T09:03:56;14.48;;;7.20;;
25559;SDS011;13450;49.374;8.584;2023-04-15T09:06:22;8.80;;;4.03;;
25559;SDS011;13450;49.374;8.584;2023-04-15T09:08:50;11.40;;;4.10;;
25559;SDS011;13450;49.374;8.584;2023-04-15T09:11:18;9.25;;;3.83;;
25559;SDS011;13450;49.374;8.584;2023-04-15T09:13:46;13.45;;;7.90;;
25559;SDS011;13450;49.374;8.584;2023-04-15T09:16:12;8.05;;;4.03;;
25559;SDS011;13450;49.374;8.584;2023-04-15T09:18:38;11.77;;;5.95;;
25559;SDS011;13450;49.374;8.584;2023-04-15T09:21:07;13.90;;;5.65;;
25559;SDS011;13450;49.374;8.584;2023-04-15T09:23:38;9.77;;;4.95;;
25559;SDS011;13450;49.374;8.584;2023-04-15T09:26:17;8.43;;;4.45;;
25559;SDS011;13450;49.374;8.584;2023-04-15T09:28:42;7.43;;;2.67;;
25559;SDS011;13450;49.374;8.584;2023-04-15T09:31:08;9.07;;;4.38;;
25559;SDS011;13450;49.374;8.584;2023-04-15T09:33:40;6.88;;;2.92;;
25559;SDS011;13450;49.374;8.584;2023-04-15T09:36:21;19.08;;;10.25;;
25559;SDS011;13450;49.374;8.584;2023-04-15T09:41:28;13.07;;;5.93;;
25559;SDS011;13450;49.374;8.584;2023-04-15T09:43:54;12.77;;;5.72;;
25559;SDS011;13450;49.374;8.584;2023-04-15T09:46:19;19.65;;;8.57;;
25559;SDS011;13450;49.374;8.584;2023-04-15T09:49:07;7.57;;;3.67;;
25559;SDS011;13450;49.374;8.584;2023-04-15T09:51:34;13.40;;;8.07;;
25559;SDS011;13450;49.374;8.584;2023-04-15T09:53:59;7.60;;;4.43;;
25559;SDS011;13450;49.374;8.584;2023-04-15T09:56:30;7.75;;;4.22;;
25559;SDS011;13450;49.374;8.584;2023-04-15T09:58:56;17.75;;;8.70;;
25559;SDS011;13450;49.374;8.584;2023-04-15T10:01:22;7.07;;;3.33;;
25559;SDS011;13450;49.374;8.584;2023-04-15T10:03:47;4.30;;;2.08;;
25559;SDS011;13450;49.374;8.584;2023-04-15T10:06:13;4.97;;;2.72;;
25559;SDS011;13450;49.374;8.584;2023-04-15T10:08:40;8.07;;;4.28;;
25559;SDS011;13450;49.374;8.584;2023-04-15T10:11:08;6.13;;;2.70;;
25559;SDS011;13450;49.374;8.584;2023-04-15T10:13:34;4.78;;;2.55;;
25559;SDS011;13450;49.374;8.584;2023-04-15T10:16:04;7.90;;;2.80;;
25559;SDS011;13450;49.374;8.584;2023-04-15T10:18:40;6.70;;;3.17;;
25559;SDS011;13450;49.374;8.584;2023-04-15T10:21:10;8.05;;;3.13;;
25559;SDS011;13450;49.374;8.584;2023-04-15T10:23:42;8.15;;;2.90;;
25559;SDS011;13450;49.374;8.584;2023-04-15T10:26:07;5.63;;;2.25;;
25559;SDS011;13450;49.374;8.584;2023-04-15T10:28:36;5.55;;;2.50;;
25559;SDS011;13450;49.374;8.584;2023-04-15T10:31:01;5.50;;;2.50;;
25559;SDS011;13450;49.374;8.584;2023-04-15T10:33:29;6.90;;;2.20;;
25559;SDS011;13450;49.374;8.584;2023-04-15T10:35:56;6.55;;;2.67;;
25559;SDS011;13450;49.374;8.584;2023-04-15T10:38:31;4.85;;;2.30;;
25559;SDS011;13450;49.374;8.584;2023-04-15T10:41:14;4.07;;;2.17;;
25559;SDS011;13450;49.374;8.584;2023-04-15T10:43:55;5.50;;;2.53;;
25559;SDS011;13450;49.374;8.584;2023-04-15T10:51:36;6.65;;;2.67;;
25559;SDS011;13450;49.374;8.584;2023-04-15T10:54:16;4.18;;;2.20;;
25559;SDS011;13450;49.374;8.584;2023-04-15T10:57:06;5.93;;;2.22;;
25559;SDS011;13450;49.374;8.584;2023-04-15T10:59:37;5.07;;;2.05;;
25559;SDS011;13450;49.374;8.584;2023-04-15T11:02:37;6.90;;;2.00;;
25559;SDS011;13450;49.374;8.584;2023-04-15T11:06:07;3.60;;;1.90;;
25559;SDS011;13450;49.374;8.584;2023-04-15T11:08:07;6.32;;;2.20;;
25559;SDS011;13450;49.374;8.584;2023-04-15T11:12:59;2.80;;;1.43;;
25559;SDS011;13450;49.374;8.584;2023-04-15T11:15:37;4.05;;;1.52;;
25559;SDS011;13450;49.374;8.584;2023-04-15T11:18:10;4.38;;;1.20;;
25559;SDS011;13450;49.374;8.584;2023-04-15T11:20:37;4.07;;;1.23;;
25559;SDS011;13450;49.374;8.584;2023-04-15T11:23:06;3.95;;;1.55;;
25559;SDS011;13450;49.374;8.584;2023-04-15T11:25:33;3.35;;;1.40;;
25559;SDS011;13450;49.374;8.584;2023-04-15T11:28:00;3.20;;;1.10;;
25559;SDS011;13450;49.374;8.584;2023-04-15T11:30:27;3.45;;;1.70;;
25559;SDS011;13450;49.374;8.584;2023-04-15T11:32:57;4.43;;;1.60;;
25559;SDS011;13450;49.374;8.584;2023-04-15T11:35:25;8.13;;;3.63;;
25559;SDS011;13450;49.374;8.584;2023-04-15T11:37:50;8.50;;;3.78;;
25559;SDS011;13450;49.374;8.584;2023-04-15T11:40:19;7.43;;;3.03;;
25559;SDS011;13450;49.374;8.584;2023-04-15T11:43:09;5.38;;;2.08;;
25559;SDS011;13450;49.374;8.584;2023-04-15T11:45:35;6.05;;;2.70;;
25559;SDS011;13450;49.374;8.584;2023-04-15T11:48:08;7.50;;;2.90;;
25559;SDS011;13450;49.374;8.584;2023-04-15T11:50:35;12.10;;;4.70;;
25559;SDS011;13450;49.374;8.584;2023-04-15T11:53:03;6.97;;;2.80;;
25559;SDS011;13450;49.374;8.584;2023-04-15T11:55:29;8.38;;;3.78;;
25559;SDS011;13450;49.374;8.584;2023-04-15T12:00:39;10.60;;;6.50;;
25559;SDS011;13450;49.374;8.584;2023-04-15T12:03:12;4.20;;;2.10;;
25559;SDS011;13450;49.374;8.584;2023-04-15T12:11:49;54.08;;;26.63;;
25559;SDS011;13450;49.374;8.584;2023-04-15T12:14:30;25.83;;;12.75;;
25559;SDS011;13450;49.374;8.584;2023-04-15T12:16:57;37.33;;;23.92;;
25559;SDS011;13450;49.374;8.584;2023-04-15T12:19:31;25.85;;;16.85;;
25559;SDS011;13450;49.374;8.584;2023-04-15T12:22:04;10.15;;;6.30;;
25559;SDS011;13450;49.374;8.584;2023-04-15T12:24:33;5.05;;;1.92;;
25559;SDS011;13450;49.374;8.584;2023-04-15T12:27:01;4.43;;;2.45;;
25559;SDS011;13450;49.374;8.584;2023-04-15T12:29:31;8.20;;;4.88;;
25559;SDS011;13450;49.374;8.584;2023-04-15T12:32:03;5.97;;;2.60;;
25559;SDS011;13450;49.374;8.584;2023-04-15T12:34:39;9.48;;;4.00;;
25559;SDS011;13450;49.374;8.584;2023-04-15T12:37:07;6.75;;;2.40;;
25559;SDS011;13450;49.374;8.584;2023-04-15T12:39:40;3.67;;;1.60;;
25559;SDS011;13450;49.374;8.584;2023-04-15T12:42:07;5.80;;;2.17;;
25559;SDS011;13450;49.374;8.584;2023-04-15T12:44:34;12.20;;;7.30;;
25559;SDS011;13450;49.374;8.584;2023-04-15T12:49:27;7.22;;;3.10;;
25559;SDS011;13450;49.374;8.584;2023-04-15T12:51:57;4.20;;;1.90;;
25559;SDS011;13450;49.374;8.584;2023-04-15T12:54:24;4.38;;;1.70;;
25559;SDS011;13450;49.374;8.584;2023-04-15T12:56:52;5.13;;;2.20;;
25559;SDS011;13450;49.374;8.584;2023-04-15T12:59:18;3.47;;;1.60;;
25559;SDS011;13450;49.374;8.584;2023-04-15T13:01:44;5.13;;;2.20;;
25559;SDS011;13450;49.374;8.584;2023-04-15T13:04:18;6.55;;;2.25;;
25559;SDS011;13450;49.374;8.584;2023-04-15T13:06:44;7.20;;;2.70;;
25559;SDS011;13450;49.374;8.584;2023-04-15T13:09:11;4.70;;;1.60;;
25559;SDS011;13450;49.374;8.584;2023-04-15T13:11:36;6.43;;;1.75;;
25559;SDS011;13450;49.374;8.584;2023-04-15T13:14:03;3.72;;;1.25;;
25559;SDS011;13450;49.374;8.584;2023-04-15T13:16:32;4.75;;;1.40;;
25559;SDS011;13450;49.374;8.584;2023-04-15T13:18:59;2.90;;;1.00;;
25559;SDS011;13450;49.374;8.584;2023-04-15T13:21:25;2.10;;;0.82;;
25559;SDS011;13450;49.374;8.584;2023-04-15T13:23:51;2.70;;;0.80;;
25559;SDS011;13450;49.374;8.584;2023-04-15T13:26:19;4.00;;;0.83;;
25559;SDS011;13450;49.374;8.584;2023-04-15T13:28:45;1.05;;;0.50;;
25559;SDS011;13450;49.374;8.584;2023-04-15T13:31:10;2.45;;;0.88;;
25559;SDS011;13450;49.374;8.584;2023-04-15T13:33:36;2.10;;;0.85;;
25559;SDS011;13450;49.374;8.584;2023-04-15T13:36:03;1.88;;;0.70;;
25559;SDS011;13450;49.374;8.584;2023-04-15T13:38:30;2.60;;;1.20;;
25559;SDS011;13450;49.374;8.584;2023-04-15T13:40:55;1.33;;;0.63;;
25559;SDS011;13450;49.374;8.584;2023-04-15T13:43:21;4.05;;;1.60;;
25559;SDS011;13450;49.374;8.584;2023-04-15T13:45:46;1.77;;;0.75;;
25559;SDS011;13450;49.374;8.584;2023-04-15T13:48:12;3.83;;;1.30;;
25559;SDS011;13450;49.374;8.584;2023-04-15T13:50:37;1.45;;;0.60;;
25559;SDS011;13450;49.374;8.584;2023-04-15T13:53:02;1.77;;;0.60;;
25559;SDS011;13450;49.374;8.584;2023-04-15T13:55:30;3.80;;;0.75;;
25559;SDS011;13450;49.374;8.584;2023-04-15T13:57:55;1.05;;;0.57;;
25559;SDS011;13450;49.374;8.584;2023-04-15T14:00:21;3.17;;;0.60;;
25559;SDS011;13450;49.374;8.584;2023-04-15T14:02:46;3.95;;;1.10;;
25559;SDS011;13450;49.374;8.584;2023-04-15T14:05:12;1.98;;;0.73;;
25559;SDS011;13450;49.374;8.584;2023-04-15T14:07:37;3.05;;;0.70;;
25559;SDS011;13450;49.374;8.584;2023-04-15T14:10:03;2.55;;;0.80;;
25559;SDS011;13450;49.374;8.584;2023-04-15T14:12:28;4.35;;;0.80;;
25559;SDS011;13450;49.374;8.584;2023-04-15T14:14:53;1.75;;;0.60;;
25559;SDS011;13450;49.374;8.584;2023-04-15T14:17:19;1.10;;;0.60;;
25559;SDS011;13450;49.374;8.584;2023-04-15T14:19:45;4.65;;;0.80;;
25559;SDS011;13450;49.374;8.584;2023-04-15T14:22:10;2.15;;;0.80;;
25559;SDS011;13450;49.374;8.584;2023-04-15T14:24:35;1.00;;;0.68;;
25559;SDS011;13450;49.374;8.584;2023-04-15T14:27:01;2.28;;;0.73;;
25559;SDS011;13450;49.374;8.584;2023-04-15T14:29:27;1.42;;;0.70;;
25559;SDS011;13450;49.374;8.584;2023-04-15T14:31:52;1.20;;;0.60;;
25559;SDS011;13450;49.374;8.584;2023-04-15T14:34:21;1.43;;;0.63;;
25559;SDS011;13450;49.374;8.584;2023-04-15T14:36:49;2.90;;;0.77;;
25559;SDS011;13450;49.374;8.584;2023-04-15T14:39:14;2.42;;;0.57;;
25559;SDS011;13450;49.374;8.584;2023-04-15T14:41:40;2.03;;;0.80;;
25559;SDS011;13450;49.374;8.584;2023-04-15T14:44:05;2.45;;;0.85;;
25559;SDS011;13450;49.374;8.584;2023-04-15T14:46:33;2.13;;;0.88;;
25559;SDS011;13450;49.374;8.584;2023-04-15T14:48:58;2.22;;;0.85;;
25559;SDS011;13450;49.374;8.584;2023-04-15T14:51:24;2.75;;;0.90;;
25559;SDS011;13450;49.374;8.584;2023-04-15T14:53:51;2.90;;;1.00;;
25559;SDS011;13450;49.374;8.584;2023-04-15T14:56:17;2.72;;;0.90;;
25559;SDS011;13450;49.374;8.584;2023-04-15T14:58:44;2.17;;;1.00;;
25559;SDS011;13450;49.374;8.584;2023-04-15T15:01:09;2.42;;;1.00;;
25559;SDS011;13450;49.374;8.584;2023-04-15T15:03:35;2.42;;;0.93;;
25559;SDS011;13450;49.374;8.584;2023-04-15T15:06:03;1.77;;;0.80;;
25559;SDS011;13450;49.374;8.584;2023-04-15T15:08:31;1.77;;;0.80;;
25559;SDS011;13450;49.374;8.584;2023-04-15T15:10:56;2.20;;;0.80;;
25559;SDS011;13450;49.374;8.584;2023-04-15T15:13:22;2.70;;;1.08;;